METAR Data
IDs: Format: Raw Decoded Include TAF

Data at: 1024 UTC 18 Jan 2019

PAWS 180956Z AUTO 00000KT 10SM CLR M15/M17 A2961 RMK AO2 SLP041 T11501167 FZRANO
PAWS 180627Z AUTO 09003KT 10SM SCT001 M13/M14 A2960 RMK AO2 FZRANO
PAWS 180620Z AUTO 11003KT 10SM BKN001 M13/M14 A2960 RMK AO2 FZRANO
PAWS 180556Z AUTO 00000KT 10SM CLR M13/M14 A2960 RMK AO2 SLP039 T11281144 11061 21133 58002 FZRANO
PAWS 180456Z AUTO 00000KT 10SM CLR M13/M14 A2960 RMK AO2 SLP040 T11281144 FZRANO
PAWS 180356Z AUTO 00000KT 10SM CLR M12/M14 A2961 RMK AO2 SLP041 T11221139 FZRANO
PAWS 180256Z AUTO 00000KT 10SM CLR M12/M13 A2961 RMK AO2 SLP041 T11171133 56006 FZRANO
PAWS 180156Z AUTO 00000KT 10SM CLR M10/M12 A2961 RMK AO2 SLP041 T11001122 FZRANO
PAWS 172356Z AUTO 00000KT 10SM CLR M06/M09 A2962 RMK AO2 SLP046 T10611089 11056 21128 58009 FZRANO
PAWS 172256Z AUTO 00000KT 10SM CLR M06/M09 A2964 RMK AO2 SLP050 T10611089 FZRANO
PAWS 172156Z AUTO 00000KT 10SM CLR M07/M09 A2965 RMK AO2 SLP054 T10721094 FZRANO
PAWS 172056Z AUTO 00000KT 10SM CLR M09/M11 A2965 RMK AO2 SLP056 T10891111 58007 FZRANO
PAWS 171956Z AUTO 26003KT 10SM CLR M12/M13 A2966 RMK AO2 SLP061 T11171128 FZRANO
PAWS 171756Z AUTO 24003KT 10SM CLR M11/M12 A2967 RMK AO2 SLP064 T11111122 11089 21117 56006 FZRANO
PAWS 171656Z AUTO 24003KT 10SM CLR M12/M13 A2967 RMK AO2 SLP064 T11171128 FZRANO
PAWS 171456Z AUTO 00000KT 10SM CLR M11/M12 A2969 RMK AO2 SLP070 T11111122 58012 FZRANO
PAWS 170956Z AUTO 25004KT 10SM CLR M06/M08 A2974 RMK AO2 SLP086 T10611083 FZRANO
PAWS 170756Z AUTO 00000KT 10SM OVC100 M05/M08 A2974 RMK AO2 SLP088 T10501078 FZRANO
PAWS 170556Z AUTO 00000KT 10SM OVC075 M04/M07 A2973 RMK AO2 SLP083 T10441072 11017 21056 51003 FZRANO
PAWS 170456Z AUTO 00000KT 10SM OVC080 M05/M08 A2973 RMK AO2 SLP083 T10501078 FZRANO
PAWS 170356Z AUTO 00000KT 10SM OVC090 M06/M08 A2972 RMK AO2 SLP081 T10561078 FZRANO
PAWS 170156Z AUTO 24003KT 10SM OVC080 M05/M08 A2972 RMK AO2 SLP079 T10501078 FZRANO
PAWS 170056Z AUTO 00000KT 10SM OVC090 M03/M07 A2971 RMK AO2 SLP075 T10331072 FZRANO
PAWS 162256Z AUTO 06008KT 10SM FEW120 01/M07 A2971 RMK AO2 SLP075 T00111072 FZRANO